createdAt,value
2017-12-03T00:01:48.381Z,75.10
2017-12-03T00:04:15.427Z,74.30
2017-12-03T00:06:42.431Z,74.60
2017-12-03T00:09:08.679Z,74.60
2017-12-03T00:11:34.960Z,75.30
2017-12-03T00:14:01.187Z,75.00
2017-12-03T00:16:28.117Z,75.20
2017-12-03T00:18:55.194Z,75.20
2017-12-03T00:21:21.439Z,75.20
2017-12-03T00:23:47.637Z,75.00
2017-12-03T00:26:13.914Z,74.60
2017-12-03T00:28:40.167Z,73.90
2017-12-03T00:31:07.186Z,74.30
2017-12-03T00:33:33.419Z,74.30
2017-12-03T00:35:59.646Z,74.50
2017-12-03T00:38:25.890Z,74.30
2017-12-03T00:40:52.210Z,74.20
2017-12-03T00:43:18.448Z,74.00
2017-12-03T00:45:44.646Z,74.10
2017-12-03T00:48:10.908Z,73.90
2017-12-03T00:50:37.197Z,74.40
2017-12-03T00:53:03.475Z,73.00
2017-12-03T00:55:30.488Z,75.60
2017-12-03T00:57:56.734Z,75.50
2017-12-03T01:00:23.011Z,74.80
2017-12-03T01:02:49.289Z,75.60
2017-12-03T01:05:15.582Z,75.30
2017-12-03T01:07:41.838Z,76.60
2017-12-03T01:10:08.057Z,75.80
2017-12-03T01:12:34.318Z,75.40
2017-12-03T01:15:00.561Z,76.50
2017-12-03T01:17:27.619Z,75.80
2017-12-03T01:19:54.694Z,76.70
2017-12-03T01:22:20.923Z,76.70
2017-12-03T01:24:47.175Z,75.60
2017-12-03T01:27:13.399Z,75.40
2017-12-03T01:29:39.694Z,75.60
2017-12-03T01:32:05.949Z,74.60
2017-12-03T01:34:32.233Z,74.90
2017-12-03T01:36:59.176Z,75.20
2017-12-03T01:39:26.199Z,74.70
2017-12-03T01:41:52.413Z,74.70
2017-12-03T01:44:18.652Z,74.60
2017-12-03T01:46:44.920Z,74.50
2017-12-03T01:49:11.872Z,74.60
2017-12-03T01:51:38.871Z,74.40
2017-12-03T01:54:05.157Z,74.40
2017-12-03T01:56:31.463Z,74.30
2017-12-03T01:58:58.480Z,74.20
2017-12-03T02:01:24.707Z,74.20
2017-12-03T02:03:51.004Z,75.20
2017-12-03T02:06:17.284Z,74.60
2017-12-03T02:08:43.664Z,75.60
2017-12-03T02:11:09.998Z,75.90
2017-12-03T02:13:36.215Z,75.40
2017-12-03T02:16:02.493Z,74.70
2017-12-03T02:18:28.734Z,74.40
2017-12-03T02:20:55.796Z,73.60
2017-12-03T02:23:22.787Z,75.00
2017-12-03T02:25:49.055Z,75.00
2017-12-03T02:28:16.075Z,74.50
2017-12-03T02:30:42.381Z,74.40
2017-12-03T02:33:08.627Z,74.40
2017-12-03T02:35:34.914Z,74.10
2017-12-03T02:38:01.915Z,73.30
2017-12-03T02:40:28.182Z,73.30
2017-12-03T02:42:55.167Z,73.10
2017-12-03T02:45:21.435Z,73.10
2017-12-03T02:47:47.655Z,72.90
2017-12-03T02:50:13.996Z,71.50
2017-12-03T02:52:40.252Z,70.80
2017-12-03T02:55:07.306Z,71.70
2017-12-03T02:57:33.561Z,71.70
2017-12-03T02:59:59.818Z,69.90
2017-12-03T03:02:26.082Z,70.10
2017-12-03T03:04:53.053Z,74.30
2017-12-03T03:07:19.310Z,74.30
2017-12-03T03:09:45.543Z,74.00
2017-12-03T03:12:11.745Z,73.80
2017-12-03T03:14:38.018Z,73.70
2017-12-03T03:17:04.254Z,73.30
2017-12-03T03:19:30.551Z,73.50
2017-12-03T03:21:56.804Z,73.20
2017-12-03T03:24:23.772Z,73.40
2017-12-03T03:26:50.763Z,72.70
2017-12-03T03:29:17.008Z,72.10
2017-12-03T03:31:43.257Z,72.60
2017-12-03T03:34:10.216Z,73.70
2017-12-03T03:36:37.252Z,73.30
2017-12-03T03:39:03.513Z,73.30
2017-12-03T03:41:30.447Z,72.60
2017-12-03T03:43:57.396Z,72.20
2017-12-03T03:46:24.406Z,71.80
2017-12-03T03:48:50.687Z,71.70
2017-12-03T03:51:16.958Z,71.80
2017-12-03T03:53:43.184Z,71.10
2017-12-03T03:56:09.449Z,71.10
2017-12-03T03:58:35.760Z,70.80
2017-12-03T04:01:02.093Z,71.10
2017-12-03T04:03:28.394Z,71.00
2017-12-03T04:05:54.671Z,70.50
2017-12-03T04:08:21.652Z,69.90
2017-12-03T04:10:47.955Z,69.90
2017-12-03T04:13:15.035Z,70.20
2017-12-03T04:15:41.326Z,70.20
2017-12-03T04:18:08.323Z,70.80
2017-12-03T04:20:34.585Z,69.90
2017-12-03T04:23:00.808Z,70.40
2017-12-03T04:25:27.056Z,70.80
2017-12-03T04:27:54.019Z,70.10
2017-12-03T04:30:21.036Z,70.20
2017-12-03T04:32:48.036Z,71.30
2017-12-03T04:35:14.355Z,71.40
2017-12-03T04:37:40.671Z,71.20
2017-12-03T04:40:06.983Z,71.20
2017-12-03T04:42:34.077Z,70.30
2017-12-03T04:45:00.358Z,70.30
2017-12-03T04:47:34.574Z,70.20
2017-12-03T04:50:01.537Z,69.40
2017-12-03T04:52:28.566Z,69.20
2017-12-03T04:54:54.863Z,69.20
2017-12-03T04:57:21.132Z,68.90
2017-12-03T04:59:48.195Z,71.30
2017-12-03T05:02:14.465Z,71.20
2017-12-03T05:04:40.737Z,71.50
2017-12-03T05:07:07.741Z,70.80
2017-12-03T05:09:34.051Z,70.30
2017-12-03T05:12:00.331Z,70.50
2017-12-03T05:14:27.363Z,71.10
2017-12-03T05:16:53.606Z,71.10
2017-12-03T05:19:19.919Z,70.80
2017-12-03T05:21:46.274Z,70.20
2017-12-03T05:24:13.271Z,70.20
2017-12-03T05:26:39.554Z,70.60
2017-12-03T05:29:06.649Z,70.60
2017-12-03T05:31:32.928Z,70.60
2017-12-03T05:33:59.196Z,70.90
2017-12-03T05:36:25.522Z,70.00
2017-12-03T05:38:51.815Z,70.90
2017-12-03T05:41:18.841Z,71.30
2017-12-03T05:43:45.090Z,71.30
2017-12-03T05:46:11.343Z,70.80
2017-12-03T05:48:38.340Z,71.00
2017-12-03T05:51:04.620Z,71.00
2017-12-03T05:53:31.627Z,71.10
2017-12-03T05:55:57.944Z,71.00
2017-12-03T05:58:24.269Z,71.00
2017-12-03T06:00:50.536Z,70.80
2017-12-03T06:03:16.842Z,70.00
2017-12-03T06:05:43.159Z,70.30
2017-12-03T06:08:09.439Z,70.90
2017-12-03T06:10:36.517Z,70.30
2017-12-03T06:13:02.807Z,70.20
2017-12-03T06:15:29.773Z,69.90
2017-12-03T06:17:56.766Z,71.70
2017-12-03T06:20:23.050Z,71.60
2017-12-03T06:22:50.087Z,72.10
2017-12-03T06:25:17.148Z,71.90
2017-12-03T06:27:44.110Z,72.30
2017-12-03T06:30:10.411Z,72.30
2017-12-03T06:32:37.507Z,71.90
2017-12-03T06:35:03.820Z,71.90
2017-12-03T06:37:30.119Z,71.90
2017-12-03T06:39:57.104Z,71.60
2017-12-03T06:42:23.346Z,71.60
2017-12-03T06:44:49.611Z,70.90
2017-12-03T06:47:15.878Z,71.90
2017-12-03T06:49:42.160Z,71.20
2017-12-03T06:52:08.398Z,71.60
2017-12-03T06:54:35.427Z,71.20
2017-12-03T06:57:01.686Z,71.80
2017-12-03T06:59:28.721Z,71.60
2017-12-03T07:01:55.751Z,72.50
2017-12-03T07:04:22.048Z,71.80
2017-12-03T07:06:48.355Z,73.30
2017-12-03T07:09:14.615Z,73.00
2017-12-03T07:11:40.871Z,72.50
2017-12-03T07:14:07.170Z,71.60
2017-12-03T07:16:33.436Z,71.60
2017-12-03T07:18:59.758Z,71.80
2017-12-03T07:21:26.128Z,72.20
2017-12-03T07:23:52.411Z,72.40
2017-12-03T07:26:18.766Z,70.60
2017-12-03T07:28:45.773Z,70.50
2017-12-03T07:31:12.060Z,70.40
2017-12-03T07:33:39.110Z,70.50
2017-12-03T07:36:06.111Z,71.70
2017-12-03T07:38:32.451Z,71.70
2017-12-03T07:40:58.799Z,71.80
2017-12-03T07:43:25.863Z,73.40
2017-12-03T07:45:52.909Z,75.30
2017-12-03T07:48:19.951Z,75.40
2017-12-03T07:50:46.974Z,74.30
2017-12-03T07:53:13.267Z,74.30
2017-12-03T07:55:39.589Z,73.80
2017-12-03T07:58:05.867Z,75.00
2017-12-03T08:00:32.116Z,76.20
2017-12-03T08:02:58.419Z,75.70
2017-12-03T08:05:24.681Z,76.10
2017-12-03T08:07:51.707Z,75.50
2017-12-03T08:10:17.988Z,75.50
2017-12-03T08:12:44.287Z,75.40
2017-12-03T08:15:11.352Z,76.40
2017-12-03T08:17:37.613Z,76.40
2017-12-03T08:20:03.888Z,77.40
2017-12-03T08:22:30.972Z,76.80
2017-12-03T08:24:57.299Z,76.70
2017-12-03T08:27:24.432Z,77.40
2017-12-03T08:29:50.742Z,77.30
2017-12-03T08:32:17.774Z,75.90
2017-12-03T08:34:44.083Z,75.60
2017-12-03T08:37:10.351Z,75.50
2017-12-03T08:39:36.635Z,76.30
2017-12-03T08:42:02.974Z,76.50
2017-12-03T08:44:29.299Z,77.50
2017-12-03T08:46:55.637Z,77.10
2017-12-03T08:49:21.915Z,77.00
2017-12-03T08:51:48.964Z,78.00
2017-12-03T08:54:15.964Z,77.80
2017-12-03T08:56:42.203Z,77.80
2017-12-03T08:59:08.465Z,75.60
2017-12-03T09:01:35.507Z,74.10
2017-12-03T09:04:02.485Z,73.10
2017-12-03T09:06:28.698Z,73.00
2017-12-03T09:08:55.008Z,71.30
2017-12-03T09:11:22.044Z,73.20
2017-12-03T09:13:48.382Z,72.40
2017-12-03T09:16:15.457Z,71.70
2017-12-03T09:18:41.769Z,70.70
2017-12-03T09:21:08.859Z,71.20
2017-12-03T09:23:35.143Z,71.20
2017-12-03T09:26:02.112Z,71.20
2017-12-03T09:28:28.418Z,71.30
2017-12-03T09:30:55.402Z,70.80
2017-12-03T09:33:21.626Z,70.80
2017-12-03T09:35:47.952Z,71.70
2017-12-03T09:38:14.267Z,70.70
2017-12-03T09:40:40.570Z,70.60
2017-12-03T09:43:06.877Z,70.30
2017-12-03T09:45:33.145Z,72.10
2017-12-03T09:48:00.151Z,70.10
2017-12-03T09:50:26.464Z,70.00
2017-12-03T09:52:52.786Z,69.50
2017-12-03T09:55:19.087Z,68.00
2017-12-03T09:57:46.103Z,67.70
2017-12-03T10:00:12.371Z,67.70
2017-12-03T10:02:38.706Z,69.30
2017-12-03T10:05:05.029Z,67.90
2017-12-03T10:07:32.052Z,69.00
2017-12-03T10:09:58.370Z,69.00
2017-12-03T10:12:24.721Z,70.10
2017-12-03T10:14:51.732Z,67.30
2017-12-03T10:17:18.031Z,66.80
2017-12-03T10:19:44.261Z,67.70
2017-12-03T10:22:10.481Z,68.60
2017-12-03T10:24:37.495Z,67.60
2017-12-03T10:27:03.772Z,67.60
2017-12-03T10:29:30.107Z,65.40
2017-12-03T10:31:56.433Z,67.90
2017-12-03T10:34:22.747Z,65.60
2017-12-03T10:36:49.015Z,66.30
2017-12-03T10:39:15.354Z,66.70
2017-12-03T10:41:41.601Z,69.20
2017-12-03T10:44:08.635Z,68.50
2017-12-03T10:46:34.965Z,68.50
2017-12-03T10:49:01.171Z,67.50
2017-12-03T10:51:27.394Z,66.90
2017-12-03T10:53:53.672Z,67.40
2017-12-03T10:56:19.952Z,67.60
2017-12-03T10:58:46.210Z,65.10
2017-12-03T11:01:12.478Z,66.70
2017-12-03T11:03:39.525Z,67.10
2017-12-03T11:06:06.518Z,67.30
2017-12-03T11:08:32.834Z,67.30
2017-12-03T11:10:59.096Z,68.80
2017-12-03T11:13:25.373Z,67.20
2017-12-03T11:15:52.418Z,67.50
2017-12-03T11:18:18.683Z,67.50
2017-12-03T11:20:44.983Z,68.30
2017-12-03T11:23:11.282Z,69.90
2017-12-03T11:25:38.324Z,66.60
2017-12-03T11:28:05.358Z,68.80
2017-12-03T11:30:31.622Z,68.90
2017-12-03T11:32:58.662Z,68.20
2017-12-03T11:35:25.719Z,68.60
2017-12-03T11:37:52.742Z,67.90
2017-12-03T11:40:19.724Z,71.30
2017-12-03T11:42:45.966Z,70.50
2017-12-03T11:45:12.209Z,70.00
2017-12-03T11:47:38.503Z,68.10
2017-12-03T11:50:05.579Z,69.90
2017-12-03T11:52:31.848Z,69.90
2017-12-03T11:54:58.091Z,71.40
2017-12-03T11:57:25.097Z,73.10
2017-12-03T11:59:51.310Z,72.40
2017-12-03T12:02:17.623Z,71.20
2017-12-03T12:04:43.891Z,70.90
2017-12-03T12:07:10.095Z,70.20
2017-12-03T12:09:36.379Z,70.90
2017-12-03T12:12:03.366Z,72.00
2017-12-03T12:14:29.625Z,71.80
2017-12-03T12:16:55.845Z,72.00
2017-12-03T12:19:22.168Z,74.60
2017-12-03T12:21:48.480Z,73.70
2017-12-03T12:24:14.692Z,73.40
2017-12-03T12:26:41.671Z,74.20
2017-12-03T12:29:07.939Z,74.10
2017-12-03T12:31:34.191Z,73.40
2017-12-03T12:34:01.125Z,75.20
2017-12-03T12:36:28.083Z,75.20
2017-12-03T12:38:55.088Z,76.90
2017-12-03T12:41:21.317Z,76.90
2017-12-03T12:43:48.359Z,75.20
2017-12-03T12:46:14.592Z,75.30
2017-12-03T12:48:40.828Z,76.10
2017-12-03T12:51:07.095Z,77.40
2017-12-03T12:53:33.366Z,78.00
2017-12-03T12:55:59.702Z,78.90
2017-12-03T12:58:25.917Z,78.60
2017-12-03T13:00:52.205Z,77.50
2017-12-03T13:03:19.270Z,78.40
2017-12-03T13:05:45.481Z,78.40
2017-12-03T13:08:12.519Z,80.30
2017-12-03T13:10:39.568Z,79.30
2017-12-03T13:13:06.501Z,79.70
2017-12-03T13:15:32.699Z,79.60
2017-12-03T13:17:58.963Z,79.10
2017-12-03T13:20:25.897Z,80.30
2017-12-03T13:22:52.142Z,80.30
2017-12-03T13:25:19.134Z,80.40
2017-12-03T13:27:45.397Z,80.40
2017-12-03T13:30:11.630Z,81.00
2017-12-03T13:32:38.583Z,81.80
2017-12-03T13:35:04.822Z,81.80
2017-12-03T13:37:31.839Z,80.00
2017-12-03T13:39:58.086Z,80.00
2017-12-03T13:42:24.326Z,81.60
2017-12-03T13:44:51.244Z,80.20
2017-12-03T13:47:17.493Z,80.20
2017-12-03T13:49:43.752Z,82.40
2017-12-03T13:52:10.041Z,81.40
2017-12-03T13:54:37.055Z,81.80
2017-12-03T13:57:03.339Z,81.70
2017-12-03T13:59:30.369Z,83.00
2017-12-03T14:01:57.336Z,81.00
2017-12-03T14:04:24.337Z,81.50
2017-12-03T14:06:50.615Z,81.50
2017-12-03T14:09:17.615Z,81.50
2017-12-03T14:11:43.867Z,81.50
2017-12-03T14:14:10.048Z,82.60
2017-12-03T14:16:36.239Z,82.30
2017-12-03T14:19:03.260Z,82.10
2017-12-03T14:21:29.576Z,82.10
2017-12-03T14:23:55.821Z,81.70
2017-12-03T14:26:22.111Z,82.70
2017-12-03T14:28:48.384Z,83.20
2017-12-03T14:31:14.577Z,83.70
2017-12-03T14:33:40.857Z,83.40
2017-12-03T14:36:07.855Z,83.40
2017-12-03T14:38:34.158Z,83.40
2017-12-03T14:41:00.432Z,84.10
2017-12-03T14:43:26.716Z,83.30
2017-12-03T14:45:53.019Z,83.30
2017-12-03T14:48:20.067Z,83.60
2017-12-03T14:50:47.036Z,84.80
2017-12-03T14:53:13.292Z,84.80
2017-12-03T14:55:39.514Z,84.20
2017-12-03T14:58:05.776Z,83.90
2017-12-03T15:00:32.011Z,83.90
2017-12-03T15:02:58.264Z,83.40
2017-12-03T15:05:25.284Z,83.80
2017-12-03T15:07:51.583Z,83.80
2017-12-03T15:10:17.816Z,82.70
2017-12-03T15:12:44.074Z,83.60
2017-12-03T15:15:10.377Z,84.20
2017-12-03T15:17:36.690Z,84.90
2017-12-03T15:20:03.002Z,83.90
2017-12-03T15:22:30.003Z,84.20
2017-12-03T15:24:56.255Z,84.20
2017-12-03T15:27:23.307Z,85.00
2017-12-03T15:29:50.339Z,84.30
2017-12-03T15:32:17.391Z,86.90
2017-12-03T15:34:44.410Z,84.30
2017-12-03T15:37:10.644Z,84.30
2017-12-03T15:39:36.962Z,85.10
2017-12-03T15:42:03.254Z,84.90
2017-12-03T15:44:30.315Z,85.50
2017-12-03T15:46:56.624Z,85.50
2017-12-03T15:49:23.663Z,85.30
2017-12-03T15:51:50.744Z,86.00
2017-12-03T15:54:17.088Z,85.70
2017-12-03T15:56:43.420Z,85.70
2017-12-03T15:59:09.720Z,85.30
2017-12-03T16:01:36.813Z,85.10
2017-12-03T16:04:03.100Z,85.10
2017-12-03T16:06:29.375Z,86.70
2017-12-03T16:08:55.688Z,85.60
2017-12-03T16:11:21.955Z,84.90
2017-12-03T16:13:48.172Z,84.60
2017-12-03T16:16:14.440Z,85.10
2017-12-03T16:18:41.447Z,86.10
2017-12-03T16:21:07.747Z,86.10
2017-12-03T16:23:34.077Z,85.80
2017-12-03T16:26:00.423Z,85.20
2017-12-03T16:28:26.741Z,85.30
2017-12-03T16:30:53.068Z,85.60
2017-12-03T16:33:19.269Z,84.30
2017-12-03T16:35:46.262Z,85.30
2017-12-03T16:38:12.527Z,85.30
2017-12-03T16:40:39.584Z,85.40
2017-12-03T16:43:06.597Z,84.90
2017-12-03T16:45:32.911Z,84.90
2017-12-03T16:47:59.154Z,85.10
2017-12-03T16:50:25.466Z,84.00
2017-12-03T16:52:51.731Z,84.60
2017-12-03T16:55:18.713Z,85.40
2017-12-03T16:57:45.016Z,85.40
2017-12-03T17:00:12.071Z,85.70
2017-12-03T17:02:39.081Z,86.60
2017-12-03T17:05:05.413Z,86.60
2017-12-03T17:07:31.699Z,86.40
2017-12-03T17:09:57.971Z,86.00
2017-12-03T17:12:24.255Z,85.40
2017-12-03T17:14:50.548Z,84.90
2017-12-03T17:17:16.791Z,85.10
2017-12-03T17:19:43.807Z,85.90
2017-12-03T17:22:10.078Z,85.90
2017-12-03T17:24:37.082Z,86.40
2017-12-03T17:27:03.448Z,86.40
2017-12-03T17:29:30.462Z,84.90
2017-12-03T17:31:56.765Z,84.90
2017-12-03T17:34:23.072Z,85.70
2017-12-03T17:36:49.371Z,85.50
2017-12-03T17:39:16.361Z,85.70
2017-12-03T17:41:42.631Z,86.20
2017-12-03T17:44:08.930Z,85.60
2017-12-03T17:46:35.176Z,86.00
2017-12-03T17:49:01.428Z,86.10
2017-12-03T17:51:27.737Z,86.50
2017-12-03T17:53:54.009Z,85.60
2017-12-03T17:56:21.031Z,86.50
2017-12-03T17:58:48.058Z,87.20
2017-12-03T18:01:14.303Z,86.70
2017-12-03T18:03:40.609Z,86.90
2017-12-03T18:06:06.830Z,86.20
2017-12-03T18:08:33.103Z,86.40
2017-12-03T18:11:00.137Z,85.90
2017-12-03T18:13:26.429Z,85.90
2017-12-03T18:15:52.608Z,86.50
2017-12-03T18:18:18.869Z,86.70
2017-12-03T18:20:45.124Z,86.60
2017-12-03T18:23:11.376Z,86.80
2017-12-03T18:25:37.700Z,85.60
2017-12-03T18:28:04.081Z,86.10
2017-12-03T18:30:40.231Z,86.10
2017-12-03T18:35:56.595Z,85.60
2017-12-03T18:38:23.002Z,86.30
2017-12-03T18:40:54.923Z,86.20
2017-12-03T18:43:21.251Z,86.90
2017-12-03T18:45:47.547Z,86.10
2017-12-03T18:48:13.808Z,86.20
2017-12-03T18:50:40.115Z,88.20
2017-12-03T18:53:06.363Z,86.00
2017-12-03T18:55:32.711Z,86.10
2017-12-03T18:57:59.184Z,86.00
2017-12-03T19:00:25.477Z,87.00
2017-12-03T19:02:51.799Z,86.70
2017-12-03T19:05:18.112Z,86.40
2017-12-03T19:07:44.437Z,86.20
2017-12-03T19:10:10.748Z,86.10
2017-12-03T19:12:37.063Z,87.00
2017-12-03T19:15:03.462Z,85.90
2017-12-03T19:17:30.552Z,87.10
2017-12-03T19:19:56.821Z,86.50
2017-12-03T19:22:23.135Z,85.90
2017-12-03T19:24:49.491Z,86.80
2017-12-03T19:27:15.873Z,85.90
2017-12-03T19:29:42.134Z,86.00
2017-12-03T19:32:08.460Z,86.70
2017-12-03T19:34:34.776Z,85.80
2017-12-03T19:37:01.039Z,86.60
2017-12-03T19:39:27.305Z,86.80
2017-12-03T19:41:53.534Z,86.90
2017-12-03T19:44:19.866Z,86.20
2017-12-03T19:46:46.163Z,87.20
2017-12-03T19:49:12.392Z,86.80
2017-12-03T19:51:38.695Z,87.30
2017-12-03T19:54:04.996Z,86.70
2017-12-03T19:56:31.295Z,85.80
2017-12-03T19:58:58.347Z,85.90
2017-12-03T20:01:25.447Z,86.10
2017-12-03T20:03:51.724Z,86.00
2017-12-03T20:06:18.789Z,86.60
2017-12-03T20:08:45.079Z,86.60
2017-12-03T20:11:11.356Z,86.70
2017-12-03T20:13:38.515Z,87.30
2017-12-03T20:16:04.826Z,87.50
2017-12-03T20:18:31.197Z,87.40
2017-12-03T20:20:57.449Z,86.20
2017-12-03T20:23:23.804Z,86.40
2017-12-03T20:25:50.900Z,86.60
2017-12-03T20:28:17.999Z,86.20
2017-12-03T20:30:45.134Z,87.00
2017-12-03T20:33:11.498Z,87.10
2017-12-03T20:35:38.013Z,87.00
2017-12-03T20:38:05.222Z,86.00
2017-12-03T20:40:31.675Z,86.00
2017-12-03T20:42:57.908Z,86.30
2017-12-03T20:45:24.266Z,87.10
2017-12-03T20:47:50.561Z,87.30
2017-12-03T20:50:16.819Z,87.90
2017-12-03T20:52:43.871Z,86.00
2017-12-03T20:55:10.957Z,86.50
2017-12-03T20:57:37.220Z,86.50
2017-12-03T21:00:03.584Z,86.80
2017-12-03T21:02:29.903Z,86.40
2017-12-03T21:04:57.044Z,87.20
2017-12-03T21:07:24.035Z,87.60
2017-12-03T21:09:50.418Z,86.50
2017-12-03T21:12:16.683Z,86.40
2017-12-03T21:14:42.970Z,86.60
2017-12-03T21:17:09.242Z,86.80
2017-12-03T21:19:35.576Z,86.90
2017-12-03T21:22:01.886Z,86.70
2017-12-03T21:24:28.899Z,87.00
2017-12-03T21:26:55.272Z,86.90
2017-12-03T21:29:22.339Z,87.20
2017-12-03T21:31:48.671Z,87.20
2017-12-03T21:34:15.059Z,86.70
2017-12-03T21:36:42.018Z,87.40
2017-12-03T21:39:08.292Z,87.40
2017-12-03T21:41:34.614Z,86.80
2017-12-03T21:44:00.870Z,87.90
2017-12-03T21:46:27.060Z,87.60
2017-12-03T21:48:53.322Z,86.40
2017-12-03T21:51:19.595Z,86.70
2017-12-03T21:53:46.667Z,88.10
2017-12-03T21:56:12.903Z,88.10
2017-12-03T21:58:39.136Z,87.40
2017-12-03T22:01:05.390Z,87.00
2017-12-03T22:03:31.671Z,86.00
2017-12-03T22:05:58.643Z,86.30
2017-12-03T22:08:24.856Z,86.30
2017-12-03T22:10:51.127Z,86.40
2017-12-03T22:13:17.325Z,86.60
2017-12-03T22:15:43.564Z,86.10
2017-12-03T22:18:09.803Z,86.20
2017-12-03T22:20:36.052Z,86.20
2017-12-03T22:23:02.304Z,86.40
2017-12-03T22:25:29.271Z,87.00
2017-12-03T22:27:55.460Z,87.00
2017-12-03T22:30:21.778Z,87.10
2017-12-03T22:32:48.463Z,86.20
2017-12-03T22:35:14.692Z,87.20
2017-12-03T22:37:40.970Z,87.40
2017-12-03T22:40:07.266Z,86.20
2017-12-03T22:42:33.514Z,87.20
2017-12-03T22:44:59.735Z,86.50
2017-12-03T22:47:25.923Z,88.10
2017-12-03T22:49:52.821Z,86.70
2017-12-03T22:52:19.085Z,86.50
2017-12-03T22:54:46.169Z,87.70
2017-12-03T22:57:12.364Z,87.70
2017-12-03T22:59:39.371Z,87.00
2017-12-03T23:02:05.690Z,86.90
2017-12-03T23:04:31.916Z,86.50
2017-12-03T23:06:58.100Z,86.50
2017-12-03T23:09:25.387Z,87.40
2017-12-03T23:11:51.616Z,87.20
2017-12-03T23:14:17.900Z,87.30
2017-12-03T23:16:44.901Z,86.70
2017-12-03T23:19:11.176Z,86.20
2017-12-03T23:21:38.115Z,86.30
2017-12-03T23:24:04.366Z,86.30
2017-12-03T23:26:31.495Z,85.80
2017-12-03T23:28:57.782Z,85.80
2017-12-03T23:31:24.062Z,85.70
2017-12-03T23:33:51.123Z,84.50
2017-12-03T23:36:18.195Z,84.70
2017-12-03T23:38:44.460Z,84.70
2017-12-03T23:41:10.785Z,85.30
2017-12-03T23:43:37.063Z,84.80
2017-12-03T23:46:04.100Z,84.40
2017-12-03T23:48:31.061Z,83.30
2017-12-03T23:50:58.068Z,83.20
2017-12-03T23:53:24.312Z,83.20
2017-12-03T23:55:50.546Z,83.70
2017-12-03T23:58:17.594Z,83.90
